Weather observations for the past three days for
Mount Carmel, Mount Carmel Municipal Airport
Metric (Imperial)
Date Time (cdt) Wind (kph) Vis. (km) Weather Sky Cond. Temperature (ºC) Relative Humidity Wind Chill (°C) Heat Index (°C) Pressure Precipitation (cm)
Air Dwpt 6 hour altimeter (cm) sea level (mb) 1 hr 3 hr 6 hr
Max. Min.
02 14:15 S 17 16.09 Partly Cloudy SCT070 SCT080 37.3 19 34% 40 76.25 0.0
02 13:55 SW 15 16.09 Partly Cloudy SCT070 37.9 19.2 33% 40 76.28 0.0
02 13:35 SW 17 16.09 Fair CLR 37.7 19.6 35% 41 76.28 0.0
02 13:15 SW 13 16.09 Fair CLR 37.8 19.5 34% 41 76.28 0.0
02 12:55 S 13 16.09 Fair CLR 37.4 19.8 37.6 23 36% 40 76.3 0.0
02 12:35 W 13 G 41 16.09 Fair CLR 37.2 20.2 37% 40 76.33 0.0
02 12:15 W 17 16.09 Fair CLR 36.7 20.7 39% 40 76.33 0.0
02 11:50 S 19 16.09 Fair CLR 36.6 21 40% 40 76.35 0.0
02 11:35 SW 19 G 31 16.09 Fair CLR 36.2 20.5 40% 40 76.35 0.0
02 11:15 SW 17 16.09 Fair CLR 36.3 21 41% 40 76.38 0.0
02 10:55 SW 13 16.09 Fair CLR 35.4 21.4 44% 39 76.38 0.0
02 10:35 SW 13 16.09 Fair CLR 34.6 21.4 46% 38 76.38 0.0
02 10:15 SW 13 16.09 Fair CLR 34.1 21.7 48% 38 76.38 0.0
02 09:55 SW 13 11.27 Fair CLR 33.5 21.7 50% 37 76.38 0.0
02 09:35 SW 15 11.27 Fair CLR 32.9 21.9 52% 37 76.38 0.0
02 09:15 S 7 11.27 Fair CLR 32 22 55% 36 76.4 0.0
02 08:55 S 9 16.09 Fair CLR 30.4 22.5 63% 34 76.4 0.0
02 08:35 S 9 16.09 Fair CLR 29.2 22.5 67% 33 76.4 0.0
02 08:15 SE 6 16.09 Fair CLR 27.6 23.5 78% 31 76.4 0.0
02 07:55 SE 6 16.09 Fair CLR 26.5 23.7 85% 29 76.4 0.0
02 07:15 Calm 16.09 Fair CLR 24.4 23.4 94% 24 76.4 0.0
02 06:55 E 6 16.09 Fair CLR 23 22.3 25.6 22.4 96% 76.38 0.0
02 06:35 E 6 16.09 Fair CLR 23 22.3 96% 76.35 0.0
02 06:15 E 7 16.09 Fair CLR 22.5 21.7 95% 76.35 0.0
02 05:55 Calm 16.09 Fair CLR 22.7 21.6 94% 76.35 0.0
02 05:35 Calm 16.09 Fair CLR 22.8 21.6 93% 76.33 0.0
02 05:15 Calm 16.09 Fair CLR 22.7 21.5 93% 76.33 0.0
02 04:55 Calm 16.09 Fair CLR 23.3 21.7 91% 76.33 0.0
02 04:35 Calm 16.09 Fair CLR 23.6 21.8 90% 76.33 0.0
02 04:15 Calm 16.09 Fair CLR 23.3 21.9 92% 76.3 0.0
02 03:55 Calm 16.09 Fair CLR 24.5 21.8 85% 25 76.3 0.0
02 03:35 Calm 16.09 Fair CLR 23.9 21.7 88% 24 76.3 0.0
02 03:15 Calm 16.09 Fair CLR 24.2 21.5 85% 24 76.28 0.0
02 02:55 Calm 16.09 Fair CLR 24 21.4 85% 24 76.3 0.0
02 02:35 Calm 16.09 Fair CLR 24.9 21.4 81% 26 76.3 0.0
02 02:15 Calm 16.09 Fair CLR 25.6 21.5 78% 27 76.28 0.0
02 01:55 Calm 16.09 Fair CLR 25.2 21.5 80% 26 76.3 0.0
02 01:35 Calm 16.09 Fair CLR 25.1 21.5 81% 26 76.3 0.0
02 01:15 Calm 16.09 Fair CLR 25.2 21.3 79% 26 76.3 0.0
02 00:55 Calm 16.09 Fair CLR 25 21.5 33.7 24.8 81% 26 76.3 0.0
02 00:35 Calm 16.09 Fair CLR 25.9 21.3 76% 27 76.3 0.0
02 00:15 Calm 16.09 Fair CLR 26.3 21.1 73% 28 76.28 0.0
01 23:55 Calm 16.09 Fair CLR 27.3 21.3 70% 29 76.28 0.0
01 23:35 Calm 16.09 Fair CLR 27 21.1 70% 29 76.28 0.0
01 23:15 Calm 16.09 Fair CLR 26.3 21 73% 28 76.28 0.0
01 22:55 Calm 16.09 Fair CLR 26.7 21 71% 28 76.28 0.0
01 22:35 Calm 16.09 Fair CLR 27.2 21 69% 29 76.3 0.0
01 21:55 Calm 16.09 Fair CLR 27.3 21.2 69% 29 76.3 0.0
01 21:35 Calm 16.09 Fair CLR 27.6 21.3 69% 30 76.3 0.0
01 21:15 Calm 16.09 Fair CLR 27.8 21.5 69% 30 76.28 0.0
01 20:55 Calm 16.09 Fair CLR 28.4 21.1 65% 31 76.28 0.0
01 20:35 Calm 16.09 Fair CLR 29.2 20.5 59% 31 76.25 0.0
01 20:15 S 7 16.09 Fair CLR 30 20.3 56% 32 76.23 0.0
01 19:55 S 6 16.09 Fair CLR 30.4 20.6 56% 33 76.2 0.0
01 19:35 S 9 8.05 Fair with Haze CLR 30.7 20.9 56% 33 76.2 0.0
01 19:15 S 7 11.27 Fair CLR 32.1 21 52% 35 76.2 0.0
01 18:55 S 7 16.09 Fair CLR 33.8 20.5 39.2 33.8 46% 37 76.2 0.0
01 18:35 S 9 11.27 Fair CLR 35.1 20 41% 38 76.23 0.0
01 18:15 S 13 16.09 Fair CLR 36.1 19.6 38% 39 76.23 0.0
01 17:55 S 9 16.09 Partly Cloudy SCT075 36.6 19.8 37% 39 76.23 0.0
01 17:35 S 13 6.44 Partly Cloudy with Haze SCT075 37.7 19.4 34% 40 76.2 0.0
01 17:15 S 6 16.09 Partly Cloudy SCT075 38 18.6 32% 40 76.2 0.0
01 16:55 SE 7 16.09 Partly Cloudy SCT075 37.9 19.2 33% 40 76.2 0.0
01 16:35 S 11 16.09 Fair CLR 37.9 19.4 34% 41 76.2 0.0
01 16:15 S 9 16.09 Fair CLR 38.1 17.9 30% 40 76.2 0.0
01 15:55 S 11 16.09 Partly Cloudy SCT075 38.3 18.1 31% 40 76.23 0.0
01 15:35 W 9 16.09 Fair CLR 37.7 18.6 33% 40 76.23 0.0
01 15:15 S 7 16.09 Fair CLR 38 18.2 31% 40 76.25 0.0
01 14:55 S 6 16.09 Fair CLR 38.3 17.4 29% 40 76.25 0.0
01 14:35 W 13 16.09 Fair CLR 38.7 18.5 31% 41 76.28 0.0
01 14:15 S 11 16.09 Fair CLR 38.6 18.9 32% 41 76.28 0.0
01 13:55 S 11 16.09 Fair CLR 37.9 18.5 32% 40 76.3 0.0
01 13:35 SW 11 16.09 Fair CLR 37.8 18.8 33% 40 76.33 0.0
01 13:15 W 17 G 26 16.09 Fair CLR 37.4 19 34% 40 76.33 0.0
01 12:55 SW 15 16.09 Fair CLR 37.7 20 37.7 22.2 36% 41 76.35 0.0
01 12:35 SW 19 16.09 Fair CLR 36.9 20 37% 40 76.35 0.0
01 12:15 SW 17 G 28 16.09 Fair CLR 36.9 20.1 37% 40 76.38 0.0
01 11:55 SW 19 G 26 16.09 Fair CLR 36.7 20.3 38% 40 76.4 0.0
01 11:35 W 17 16.09 Fair CLR 36.1 19.8 38% 39 76.4 0.0
01 11:15 SW 20 G 31 16.09 Fair CLR 35.8 20.2 40% 39 76.4 0.0
01 10:55 W 17 G 28 16.09 Fair CLR 35.4 20.4 41% 38 76.43 0.0
01 10:35 SW 20 16.09 Fair CLR 34.8 21 44% 38 76.43 0.0
01 10:15 SW 13 G 28 16.09 Fair CLR 33.6 21.2 48% 37 76.43 0.0
01 09:55 SW 13 16.09 Fair CLR 32.8 21.6 52% 36 76.43 0.0
01 09:35 SW 15 16.09 Fair CLR 32 21.8 55% 36 76.43 0.0
01 09:15 SW 15 16.09 Fair CLR 31.2 21.9 58% 35 76.43 0.0
01 08:55 SW 15 16.09 Fair CLR 30.1 22.1 62% 33 76.43 0.0
01 08:35 SW 11 16.09 Fair CLR 28.9 22.6 69% 32 76.43 0.0
01 08:15 SW 7 16.09 Fair CLR 27.5 23.2 77% 31 76.43 0.0
01 07:55 S 6 16.09 Fair CLR 26.3 23.5 85% 29 76.43 0.0
01 07:35 S 6 16.09 Fair CLR 25.5 23.5 89% 27 76.43 0.0
01 07:15 Calm 16.09 Fair CLR 23.5 22.6 95% 76.4 0.0
01 06:55 Calm 16.09 Fair CLR 22.1 21.5 24.5 21.7 96% 76.4 0.0
01 06:35 Calm 16.09 Fair CLR 21.7 21.3 98% 76.38 0.0
01 06:15 Calm 16.09 Fair CLR 22 21.6 98% 76.35 0.0
01 05:55 Calm 16.09 Fair CLR 22.1 21.7 98% 76.35 0.0
01 05:35 Calm 16.09 Fair CLR 21.9 21.1 95% 76.35 0.0
01 05:15 Calm 16.09 Fair CLR 22.3 22 98% 76.35 0.0
01 04:55 Calm 16.09 Fair CLR 22 21.5 97% 76.35 0.0
01 04:35 Calm 16.09 Fair CLR 23 21.5 91% 76.35 0.0
01 04:15 Calm 16.09 Fair CLR 23 21.5 91% 76.33 0.0
01 03:55 Calm 16.09 Fair CLR 22.4 20.8 91% 76.33 0.0
01 03:35 Calm 16.09 Fair CLR 23.2 22.1 94% 76.33 0.0
01 03:15 Calm 16.09 Fair CLR 23.1 21.5 91% 76.33 0.0
01 02:55 Calm 16.09 Fair CLR 23.2 21.5 90% 76.3 0.0
01 02:35 Calm 16.09 Fair CLR 24.1 21.8 87% 24 76.3 0.0
01 02:15 Calm 16.09 Fair CLR 23.2 21.5 90% 76.3 0.0
01 01:55 Calm 16.09 Fair CLR 23.1 21.1 89% 76.3 0.0
01 01:35 Calm 16.09 Fair CLR 22.7 21.1 91% 76.33 0.0
01 01:15 Calm 16.09 Fair CLR 22.7 20.7 89% 76.33 0.0
01 00:55 S 6 16.09 Fair CLR 22.9 20 32.8 22.9 84% 76.33 0.0
01 00:35 Calm 16.09 Fair CLR 23.5 20.6 84% 76.33 0.0
01 00:15 Calm 16.09 Fair CLR 24 20.4 80% 24 76.33 0.0
31 23:55 Calm 16.09 Fair CLR 24.4 20.7 80% 25 76.33 0.0
31 23:35 Calm 16.09 Fair CLR 24.6 20.8 79% 25 76.3 0.0
31 23:15 Calm 16.09 Fair CLR 25.1 20.7 77% 26 76.3 0.0
31 22:55 S 7 16.09 Fair CLR 26.1 21 74% 28 76.3 0.0
31 22:35 S 13 16.09 Fair CLR 26.6 21 71% 28 76.3 0.0
31 22:15 S 13 16.09 Fair CLR 26.8 21.1 71% 29 76.3 0.0
31 21:55 S 11 16.09 Fair CLR 27 21.1 70% 29 76.3 0.0
31 21:35 S 13 16.09 Fair CLR 27.7 21.1 67% 30 76.33 0.0
31 21:15 S 13 16.09 Fair CLR 28.3 21.1 65% 31 76.33 0.0
31 20:55 S 11 11.27 Fair CLR 28 21.3 67% 30 76.3 0.0
31 20:35 S 9 16.09 Fair CLR 28.4 21.5 66% 31 76.28 0.0
31 20:15 S 7 16.09 Fair CLR 28.5 21.6 66% 31 76.28 0.0
31 19:55 S 9 16.09 Fair CLR 29.3 21.6 63% 32 76.28 0.0
31 19:35 S 9 16.09 Fair CLR 30 21.6 61% 33 76.28 0.0
31 19:15 S 11 16.09 Fair CLR 31.7 21.5 55% 35 76.25 0.0
31 18:35 S 9 16.09 Fair CLR 33.7 21.1 48% 37 76.25 0.0
31 18:15 S 11 16.09 Fair CLR 33.5 21 48% 37 76.25 0.0
31 17:55 S 15 16.09 Fair CLR 34.6 20.5 44% 38 76.25 0.0
31 17:35 S 17 G 28 16.09 Partly Cloudy SCT060 35.5 20 40% 38 76.25 0.0
31 17:15 S 17 16.09 Partly Cloudy SCT060 36.3 19.9 38% 39 76.23 0.0
31 16:55 S 20 G 28 16.09 Fair CLR 36.6 20 38% 40 76.23 0.0
31 16:35 S 15 16.09 Partly Cloudy SCT070 36.2 19.5 37% 39 76.23 0.0
31 16:15 S 20 G 28 16.09 Partly Cloudy SCT070 36.8 19.7 37% 40 76.25 0.0
31 15:55 S 19 16.09 Partly Cloudy SCT070 36.1 19.4 37% 38 76.28 0.0
31 15:35 SW 20 G 28 16.09 Partly Cloudy SCT070 37.6 19.1 34% 40 76.28 0.0
31 15:15 S 17 16.09 Partly Cloudy SCT060 37 19.5 36% 40 76.3 0.0
31 14:55 S 20 16.09 Partly Cloudy SCT060 37.4 19.8 36% 40 76.3 0.0
31 14:35 S 24 G 30 16.09 Partly Cloudy SCT060 37.3 19.9 36% 40 76.33 0.0
31 14:15 SW 22 G 28 16.09 Fair CLR 36.1 19.8 38% 39 76.33 0.0
31 13:55 SW 15 16.09 Fair CLR 36.5 20.6 39% 40 76.35 0.0
31 13:35 S 17 16.09 Partly Cloudy SCT055 SCT075 36 20.5 40% 39 76.35 0.0
31 13:15 SW 20 G 28 16.09 Partly Cloudy SCT055 35.9 20 39% 39 76.38 0.0
31 12:55 SW 17 G 31 16.09 Partly Cloudy SCT055 36.7 20.1 36.7 22.1 38% 40 76.4 0.0
31 12:35 SW 20 G 28 16.09 Partly Cloudy SCT055 36.1 20 39% 39 76.4 0.0
31 12:15 S 19 G 31 16.09 Partly Cloudy SCT055 36.1 20.2 39% 39 76.43 0.0
31 11:55 SW 17 16.09 Fair CLR 35.4 20.4 41% 38 76.43 0.0
31 11:35 SW 19 16.09 Fair CLR 34.8 20.5 43% 38 76.45 0.0
31 11:15 SW 15 G 28 16.09 Fair CLR 34.5 20.5 44% 37 76.45 0.0
31 10:55 SW 19 16.09 Fair CLR 34.1 21.1 47% 37 76.43 0.0
31 10:35 SW 17 G 28 16.09 Fair CLR 33.6 21.5 49% 37 76.45 0.0
31 10:15 SW 11 16.09 Fair CLR 32.9 22 53% 37 76.45 0.0
31 09:55 SW 15 16.09 Fair CLR 32.2 22.1 55% 36 76.45 0.0
31 09:35 S 15 16.09 Fair CLR 31.5 22.2 58% 35 76.43 0.0
31 09:15 S 15 16.09 Fair CLR 30.3 22.5 63% 34 76.43 0.0
31 08:55 S 17 16.09 Fair CLR 29.5 22.5 66% 33 76.43 0.0
31 08:35 S 13 16.09 Fair CLR 28.6 22.6 70% 32 76.4 0.0
31 08:15 S 13 16.09 Fair CLR 27.6 23 76% 31 76.4 0.0
31 07:55 S 13 16.09 Fair CLR 26.5 23.3 83% 29 76.4 0.0
31 07:35 S 7 16.09 Fair CLR 25 23.3 90% 26 76.4 0.0
31 07:15 Calm 16.09 Fair CLR 23 22.5 97% 76.38 0.0
31 06:55 Calm 16.09 Fair CLR 22.2 21.5 22.5 21.3 96% 76.38 0.0
31 06:35 Calm 16.09 Fair CLR 22 21.5 97% 76.35 0.0
31 06:15 Calm 16.09 Fair CLR 22.1 21.7 98% 76.35 0.0
31 05:55 Calm 16.09 Fair CLR 21.8 21.4 98% 76.35 0.0
31 05:35 Calm 16.09 Fair CLR 21.7 21.3 98% 76.33 0.0
31 05:15 Calm 16.09 Fair CLR 21.5 21.1 98% 76.33 0.0
31 04:55 Calm 16.09 Fair CLR 21.6 21.1 97% 76.33 0.0
31 04:35 Calm 16.09 Fair CLR 21.5 21 97% 76.33 0.0
31 04:15 Calm 16.09 Fair CLR 21.6 20.6 94% 76.33 0.0
31 03:55 Calm 16.09 Fair CLR 21.7 20.9 95% 76.33 0.0
31 03:35 Calm 16.09 Fair CLR 21.6 20.5 94% 76.3 0.0
31 03:15 Calm 16.09 Fair CLR 22 20.6 92% 76.3 0.0
31 02:55 E 6 16.09 Fair CLR 22 20.6 92% 76.3 0.0
31 02:35 Calm 16.09 Fair CLR 21.9 20.7 93% 76.3 0.0
31 02:15 Calm 16.09 Fair CLR 22 20.5 91% 76.3 0.0
31 01:55 Calm 16.09 Fair CLR 22.5 20.6 89% 76.33 0.0
31 01:35 NE 6 16.09 Fair CLR 22.1 20.8 92% 76.35 0.0
31 01:15 Calm 16.09 Fair CLR 22.5 20.7 90% 76.33 0.0
31 00:55 E 7 16.09 Fair CLR 22.3 20.7 31.3 21.8 91% 76.35 0.0
31 00:35 Calm 11.27 Fair CLR 21.9 20.8 94% 76.35 0.0
31 00:15 Calm 16.09 Fair CLR 21.9 20.6 92% 76.33 0.0
30 23:55 E 6 16.09 Fair CLR 22.3 20.3 89% 76.35 0.0
30 23:35 Calm 16.09 Fair CLR 22.1 19.9 87% 76.33 0.0
30 23:15 Calm 16.09 Fair CLR 22.1 19.7 86% 76.33 0.0
30 22:55 Calm 16.09 Fair CLR 22.5 18.9 80% 76.33 0.0
30 22:35 Calm 16.09 Fair CLR 23 19.2 79% 76.33 0.0
30 22:15 Calm 16.09 Fair CLR 22.6 19 80% 76.33 0.0
30 21:55 Calm 16.09 Fair CLR 23.3 19 77% 76.33 0.0
30 21:35 Calm 16.09 Fair CLR 23.9 19.2 75% 25 76.33 0.0
30 21:15 Calm 16.09 Fair CLR 24.2 19.1 73% 25 76.33 0.0
30 20:55 Calm 16.09 Fair CLR 25.1 19.2 70% 26 76.33 0.0
30 20:35 Calm 16.09 Fair CLR 25.1 19.1 69% 26 76.3 0.0
30 20:15 Calm 16.09 Fair CLR 27 19.1 62% 28 76.28 0.0
30 19:55 SE 6 16.09 Fair CLR 27.7 19 59% 29 76.28 0.0
30 19:35 S 7 16.09 Fair CLR 28.1 19 58% 29 76.25 0.0
30 19:15 S 6 16.09 Fair CLR 29.5 18.7 52% 31 76.25 0.0
30 18:55 S 7 16.09 Fair CLR 31.5 18 36.1 31.5 45% 32 76.28 0.0
30 18:35 S 9 16.09 Fair CLR 32.2 17.6 42% 33 76.25 0.0
30 18:15 S 13 16.09 Fair CLR 33.5 17.3 38% 34 76.25 0.0
30 17:55 S 15 16.09 Fair CLR 34.2 16.7 35% 35 76.25 0.0
30 17:35 S 15 16.09 Fair CLR 34.5 15.8 33% 34 76.28 0.0
30 17:15 S 17 16.09 Fair CLR 34.9 15.7 32% 35 76.28 0.0
30 16:55 S 15 16.09 Fair CLR 35.3 14.9 29% 35 76.28 0.0
30 16:35 S 17 G 30 16.09 Fair CLR 35.1 15.8 32% 35 76.28 0.0
30 16:15 SE 11 16.09 Fair CLR 35.3 15.7 31% 35 76.28 0.0
30 15:55 S 17 16.09 Fair CLR 35.6 15.1 29% 35 76.28 0.0
30 15:35 S 13 16.09 Fair CLR 35.7 14.6 28% 35 76.3 0.0
30 15:15 SW 13 16.09 Fair CLR 35.6 14.7 29% 35 76.33 0.0
30 14:55 S 15 16.09 Fair CLR 35.6 14.1 27% 35 76.35 0.0
30 14:35 S 9 16.09 Fair CLR 35.5 14.7 29% 35 76.35 0.0
Date Time (cdt) Wind (kph) Vis. (km) Weather Sky Cond. Air Dwpt Max. Min. Relative Humidity Wind Chill (°C) Heat Index (°C) altimeter (cm) sea level (mb) 1 hr 3 hr 6 hr
6 hour
Temperature (ºC) Pressure Precipitation (cm)